Time;durP1;ratioP1;P1;durP2;ratioP2;P2;SDS_P1;SDS_P2;PMS_P1;PMS_P2;Temp;Humidity;BMP_temperature;BMP_pressure;BME280_temperature;BME280_humidity;BME280_pressure;Samples;Min_cycle;Max_cycle;Signal;HPM_P1;HPM_P2
2023/05/13 00:00:13;;;;;;;9.43;6.30;;;10.90;99.90;;;;;;5064728;28;20424;-63
2023/05/13 00:02:39;;;;;;;7.50;5.87;;;10.90;99.90;;;;;;5062108;28;20263;-62
2023/05/13 00:05:05;;;;;;;7.13;5.30;;;10.90;99.90;;;;;;5055639;28;20475;-62
2023/05/13 00:07:30;;;;;;;7.30;5.53;;;10.90;99.90;;;;;;5063458;28;20174;-63
2023/05/13 00:09:56;;;;;;;6.60;5.90;;;10.90;99.90;;;;;;5050247;28;20182;-62
2023/05/13 00:12:21;;;;;;;9.53;6.00;;;10.90;99.90;;;;;;5058509;28;20233;-62
2023/05/13 00:14:47;;;;;;;7.80;5.17;;;10.90;99.90;;;;;;5057794;28;20576;-63
2023/05/13 00:17:13;;;;;;;7.27;5.70;;;10.90;99.90;;;;;;5058696;28;20320;-63
2023/05/13 00:19:39;;;;;;;6.83;5.70;;;10.80;99.90;;;;;;5047690;28;20558;-62
2023/05/13 00:22:05;;;;;;;6.60;5.87;;;10.90;99.90;;;;;;5055884;28;20190;-62
2023/05/13 00:24:31;;;;;;;7.70;5.67;;;10.90;99.90;;;;;;5056828;28;20428;-62
2023/05/13 00:26:56;;;;;;;8.17;6.73;;;10.80;99.90;;;;;;5054510;28;20224;-61
2023/05/13 00:29:22;;;;;;;8.03;6.10;;;10.80;99.90;;;;;;5053710;28;20183;-61
2023/05/13 00:31:47;;;;;;;6.50;5.60;;;10.80;99.90;;;;;;5067926;28;20580;-61
2023/05/13 00:34:13;;;;;;;6.97;5.30;;;10.80;99.90;;;;;;5060415;28;20292;-61
2023/05/13 00:36:38;;;;;;;9.30;6.50;;;10.80;99.90;;;;;;5067271;28;20281;-61
2023/05/13 00:39:04;;;;;;;5.70;5.10;;;10.80;99.90;;;;;;5061755;28;20181;-61
2023/05/13 00:41:30;;;;;;;6.20;5.23;;;10.90;99.90;;;;;;5064369;28;20198;-61
2023/05/13 00:43:56;;;;;;;6.60;5.67;;;10.90;99.90;;;;;;5053646;28;20654;-62
2023/05/13 00:46:22;;;;;;;6.53;5.80;;;10.80;99.90;;;;;;5060856;28;20194;-63
2023/05/13 00:48:49;;;;;;;6.33;5.73;;;10.90;99.90;;;;;;5059800;28;20520;-62
2023/05/13 00:51:15;;;;;;;8.20;4.97;;;10.80;99.90;;;;;;5057181;28;20433;-61
2023/05/13 00:53:41;;;;;;;5.30;4.80;;;10.80;99.90;;;;;;5065355;28;20428;-62
2023/05/13 00:56:07;;;;;;;10.17;5.60;;;10.80;99.90;;;;;;5060899;28;20511;-62
2023/05/13 00:58:33;;;;;;;6.10;5.50;;;10.80;99.90;;;;;;5059122;28;20586;-61
2023/05/13 01:01:13;;;;;;;5.93;4.93;;;10.80;99.90;;;;;;5060786;28;20697;-61
2023/05/13 01:04:00;;;;;;;6.80;5.50;;;10.80;99.90;;;;;;5066984;28;20421;-61
2023/05/13 01:06:34;;;;;;;7.23;5.20;;;10.80;99.90;;;;;;5056179;28;20421;-61
2023/05/13 01:09:08;;;;;;;5.60;4.97;;;10.80;99.90;;;;;;5058490;28;20515;-63
2023/05/13 01:11:40;;;;;;;6.37;5.70;;;10.80;99.90;;;;;;5061157;28;20435;-62
2023/05/13 01:14:13;;;;;;;6.57;5.47;;;10.80;99.90;;;;;;5062023;28;20796;-62
2023/05/13 01:16:48;;;;;;;7.57;6.07;;;10.80;99.90;;;;;;5065849;28;20459;-61
2023/05/13 01:19:43;;;;;;;6.57;5.97;;;10.80;99.90;;;;;;5064656;28;20430;-61
2023/05/13 01:22:09;;;;;;;7.60;6.30;;;10.80;99.90;;;;;;5063598;28;20962;-62
2023/05/13 01:24:35;;;;;;;6.80;5.70;;;10.80;99.90;;;;;;5061493;28;20473;-63
2023/05/13 01:27:01;;;;;;;6.70;5.67;;;10.80;99.90;;;;;;5069463;28;20229;-65
2023/05/13 01:29:27;;;;;;;7.73;5.70;;;10.80;99.90;;;;;;5069306;28;20210;-61
2023/05/13 01:31:54;;;;;;;6.10;5.27;;;10.80;99.90;;;;;;5060903;28;22332;-62
2023/05/13 01:34:21;;;;;;;8.63;5.70;;;10.80;99.90;;;;;;5059848;28;20511;-61
2023/05/13 01:36:47;;;;;;;9.07;7.30;;;10.80;99.90;;;;;;5059526;28;20460;-63
2023/05/13 01:39:14;;;;;;;10.53;7.37;;;10.80;99.90;;;;;;5056190;28;20409;-61
2023/05/13 01:41:40;;;;;;;9.40;7.30;;;10.70;99.90;;;;;;5059306;28;20444;-61
2023/05/13 01:44:05;;;;;;;8.97;6.70;;;10.70;99.90;;;;;;5056627;28;20417;-61
2023/05/13 01:46:31;;;;;;;9.53;7.17;;;10.70;99.90;;;;;;5066327;28;20228;-61
2023/05/13 01:48:57;;;;;;;10.00;6.90;;;10.70;99.90;;;;;;5063277;28;20203;-63
2023/05/13 01:51:22;;;;;;;11.53;8.50;;;10.70;99.90;;;;;;5059606;28;20215;-61
2023/05/13 01:53:48;;;;;;;11.90;9.47;;;10.70;99.90;;;;;;5067227;28;21040;-61
2023/05/13 01:56:13;;;;;;;12.90;9.10;;;10.80;99.90;;;;;;5068949;28;20308;-63
2023/05/13 01:58:39;;;;;;;12.73;8.23;;;10.70;99.90;;;;;;5066871;28;20174;-61
2023/05/13 02:01:05;;;;;;;12.83;7.77;;;10.70;99.90;;;;;;5069808;28;20705;-61
2023/05/13 02:03:31;;;;;;;10.97;8.10;;;10.70;99.90;;;;;;5070580;28;20498;-61
2023/05/13 02:05:56;;;;;;;10.10;7.70;;;10.70;99.90;;;;;;5059084;28;20174;-63
2023/05/13 02:08:24;;;;;;;12.80;9.40;;;10.70;99.90;;;;;;5068938;28;20174;-60
2023/05/13 02:10:59;;;;;;;13.90;8.50;;;10.70;99.90;;;;;;5060884;28;20262;-62
2023/05/13 02:13:25;;;;;;;15.43;10.10;;;10.70;99.90;;;;;;5058764;28;20537;-62
2023/05/13 02:15:52;;;;;;;13.67;10.00;;;10.70;99.90;;;;;;5065088;28;20417;-63
2023/05/13 02:18:17;;;;;;;14.23;8.67;;;10.70;99.90;;;;;;5065488;28;20491;-63
2023/05/13 02:20:44;;;;;;;17.40;9.90;;;10.60;99.90;;;;;;5057923;28;20448;-61
2023/05/13 02:23:10;;;;;;;17.93;10.43;;;10.60;99.90;;;;;;5058508;28;20187;-62
2023/05/13 02:25:35;;;;;;;17.47;11.07;;;10.60;99.90;;;;;;5065595;28;20429;-61
2023/05/13 02:28:01;;;;;;;24.30;10.87;;;10.60;99.90;;;;;;5066334;28;20861;-62
2023/05/13 02:30:27;;;;;;;14.70;9.67;;;10.60;99.90;;;;;;5066356;28;21096;-63
2023/05/13 02:32:53;;;;;;;13.10;9.13;;;10.50;99.90;;;;;;5058153;28;20206;-62
2023/05/13 02:35:19;;;;;;;11.30;8.90;;;10.50;99.90;;;;;;5064983;28;20223;-62
2023/05/13 02:37:46;;;;;;;11.70;8.00;;;10.50;99.90;;;;;;5060418;28;20457;-62
2023/05/13 02:40:12;;;;;;;14.33;9.67;;;10.40;99.90;;;;;;5060931;28;20198;-62
2023/05/13 02:42:38;;;;;;;12.73;8.47;;;10.40;99.90;;;;;;5063196;28;20444;-62
2023/05/13 02:45:03;;;;;;;17.27;9.10;;;10.40;99.90;;;;;;5063886;28;20415;-61
2023/05/13 02:47:29;;;;;;;9.53;7.70;;;10.40;99.90;;;;;;5066040;28;20217;-62
2023/05/13 02:49:55;;;;;;;14.53;9.53;;;10.40;99.90;;;;;;5054699;28;21099;-63
2023/05/13 02:52:21;;;;;;;12.63;7.90;;;10.40;99.90;;;;;;5062398;28;20199;-62
2023/05/13 02:54:47;;;;;;;12.30;8.50;;;10.40;99.90;;;;;;5068000;28;20522;-62
2023/05/13 02:57:13;;;;;;;11.07;8.20;;;10.40;99.90;;;;;;5063029;28;20244;-62
2023/05/13 02:59:38;;;;;;;13.43;7.63;;;10.40;99.90;;;;;;5059777;28;20655;-62
2023/05/13 03:02:04;;;;;;;13.50;8.93;;;10.40;99.90;;;;;;5064803;28;20633;-63
2023/05/13 03:04:30;;;;;;;14.30;9.90;;;10.40;99.90;;;;;;5068273;28;20174;-63
2023/05/13 03:06:55;;;;;;;17.07;10.43;;;10.40;99.90;;;;;;5070185;28;20594;-60
2023/05/13 03:09:21;;;;;;;16.40;10.80;;;10.40;99.90;;;;;;5065490;28;20691;-63
2023/05/13 03:11:47;;;;;;;17.17;10.93;;;10.40;99.90;;;;;;5070082;28;20197;-62
2023/05/13 03:14:12;;;;;;;18.60;11.40;;;10.40;99.90;;;;;;5055233;28;20225;-62
2023/05/13 03:16:38;;;;;;;14.97;10.70;;;10.40;99.90;;;;;;5095216;28;20190;-62
2023/05/13 03:19:03;;;;;;;14.40;10.47;;;10.40;99.90;;;;;;5068687;28;20260;-61
2023/05/13 03:21:29;;;;;;;13.97;10.53;;;10.40;99.90;;;;;;5065292;28;21285;-62
2023/05/13 03:23:55;;;;;;;15.53;9.60;;;10.40;99.90;;;;;;5059918;28;20689;-61
2023/05/13 03:26:21;;;;;;;14.67;10.27;;;10.30;99.90;;;;;;5062412;28;20175;-62
2023/05/13 03:28:46;;;;;;;13.80;9.30;;;10.40;99.90;;;;;;5056549;28;20717;-62
2023/05/13 03:31:12;;;;;;;15.63;9.23;;;10.30;99.90;;;;;;5059408;28;20426;-63
2023/05/13 03:33:38;;;;;;;13.53;8.80;;;10.30;99.90;;;;;;5064448;28;20170;-62
2023/05/13 03:36:05;;;;;;;11.83;8.93;;;10.30;99.90;;;;;;5069516;28;20247;-62
2023/05/13 03:38:31;;;;;;;11.50;8.00;;;10.40;99.90;;;;;;5065676;28;20187;-61
2023/05/13 03:40:57;;;;;;;11.67;9.03;;;10.30;99.90;;;;;;5059097;28;21169;-63
2023/05/13 03:43:23;;;;;;;12.50;8.53;;;10.30;99.90;;;;;;5061581;28;20721;-62
2023/05/13 03:45:50;;;;;;;14.17;9.63;;;10.30;99.90;;;;;;5067029;28;20170;-62
2023/05/13 03:48:15;;;;;;;14.60;9.57;;;10.30;99.90;;;;;;5066291;28;20185;-63
2023/05/13 03:50:41;;;;;;;13.67;9.53;;;10.30;99.90;;;;;;5065117;28;20864;-62
2023/05/13 03:53:08;;;;;;;14.83;11.10;;;10.30;99.90;;;;;;5052434;28;20202;-64
2023/05/13 03:55:34;;;;;;;20.60;10.70;;;10.30;99.90;;;;;;5062374;28;20519;-63
2023/05/13 03:58:09;;;;;;;16.77;11.10;;;10.30;99.90;;;;;;5056567;28;20561;-61
2023/05/13 04:00:34;;;;;;;20.80;10.77;;;10.30;99.90;;;;;;5056678;28;20260;-61
2023/05/13 04:03:00;;;;;;;23.43;12.83;;;10.30;99.90;;;;;;5061058;28;21032;-63
2023/05/13 04:05:26;;;;;;;19.00;12.10;;;10.30;99.90;;;;;;5052994;28;20167;-61
2023/05/13 04:07:51;;;;;;;14.60;10.53;;;10.30;99.90;;;;;;5060611;28;20229;-61
2023/05/13 04:10:17;;;;;;;14.87;9.93;;;10.30;99.90;;;;;;5053241;28;20178;-62
2023/05/13 04:12:42;;;;;;;14.20;9.30;;;10.30;99.90;;;;;;5053769;28;20255;-61
2023/05/13 04:15:08;;;;;;;16.80;9.50;;;10.30;99.90;;;;;;5053945;28;20186;-60
2023/05/13 04:17:34;;;;;;;16.23;10.13;;;10.30;99.90;;;;;;5061877;28;20194;-61
2023/05/13 04:20:00;;;;;;;16.83;10.80;;;10.30;99.90;;;;;;5056170;28;20857;-61
2023/05/13 04:22:25;;;;;;;14.50;10.20;;;10.30;99.90;;;;;;5054701;28;20210;-62
2023/05/13 04:24:55;;;;;;;14.63;9.97;;;10.40;99.90;;;;;;5059220;28;20773;-61
2023/05/13 04:27:21;;;;;;;18.33;11.17;;;10.40;99.90;;;;;;5061594;28;20194;-61
2023/05/13 04:29:47;;;;;;;15.57;11.33;;;10.40;99.90;;;;;;5059754;28;20464;-61
2023/05/13 04:32:16;;;;;;;15.40;11.13;;;10.40;99.90;;;;;;5060460;28;20491;-62
2023/05/13 04:34:42;;;;;;;17.27;11.80;;;10.40;99.90;;;;;;5055926;28;20185;-61
2023/05/13 04:37:08;;;;;;;20.53;12.60;;;10.40;99.90;;;;;;5058757;28;20461;-61
2023/05/13 04:39:33;;;;;;;21.00;13.00;;;10.40;99.90;;;;;;5061644;28;20178;-62
2023/05/13 04:41:59;;;;;;;21.80;12.80;;;10.40;99.90;;;;;;5066812;28;20696;-61
2023/05/13 04:44:24;;;;;;;21.80;13.60;;;10.40;99.90;;;;;;5062843;28;20531;-61
2023/05/13 04:46:50;;;;;;;17.33;12.97;;;10.40;99.90;;;;;;5056295;28;20639;-61
2023/05/13 04:49:15;;;;;;;16.43;12.53;;;10.40;99.90;;;;;;5058235;28;20183;-61
2023/05/13 04:51:41;;;;;;;20.97;13.40;;;10.40;99.90;;;;;;5070652;28;20201;-61
2023/05/13 04:54:07;;;;;;;25.37;14.70;;;10.40;99.90;;;;;;5059817;28;20182;-61
2023/05/13 04:56:32;;;;;;;28.47;14.97;;;10.40;99.90;;;;;;5061739;28;20179;-59
2023/05/13 04:58:58;;;;;;;24.93;15.00;;;10.40;99.90;;;;;;5057560;28;20266;-60
2023/05/13 05:01:24;;;;;;;19.67;14.03;;;10.40;99.90;;;;;;5069111;28;20182;-60
2023/05/13 05:03:49;;;;;;;22.83;14.80;;;10.40;99.90;;;;;;5067820;28;20179;-62
2023/05/13 05:06:15;;;;;;;24.97;15.50;;;10.50;99.90;;;;;;5066372;28;20513;-62
2023/05/13 05:08:42;;;;;;;24.80;16.17;;;10.50;99.90;;;;;;5058130;28;20217;-62
2023/05/13 05:11:08;;;;;;;22.87;15.40;;;10.50;99.90;;;;;;5072719;28;20279;-62
2023/05/13 05:13:34;;;;;;;24.37;15.20;;;10.50;99.90;;;;;;5050236;28;20468;-65
2023/05/13 05:16:00;;;;;;;24.10;15.60;;;10.50;99.90;;;;;;5051247;28;20808;-63
2023/05/13 05:18:25;;;;;;;24.07;16.13;;;10.50;99.90;;;;;;5060466;28;20209;-63
2023/05/13 05:20:51;;;;;;;19.83;13.13;;;10.50;99.90;;;;;;5057809;28;20183;-63
2023/05/13 05:23:16;;;;;;;28.13;14.67;;;10.50;99.90;;;;;;5049234;28;20210;-67
2023/05/13 05:25:42;;;;;;;22.77;14.30;;;10.50;99.90;;;;;;5052986;28;20371;-64
2023/05/13 05:28:08;;;;;;;21.87;14.10;;;10.50;99.90;;;;;;5057096;28;20190;-64
2023/05/13 05:30:38;;;;;;;19.80;13.60;;;10.50;99.90;;;;;;5055833;28;20213;-66
2023/05/13 05:33:05;;;;;;;23.20;13.43;;;10.40;99.90;;;;;;5057707;28;20202;-62
2023/05/13 05:35:32;;;;;;;20.10;13.97;;;10.40;99.90;;;;;;5055417;28;20452;-63
2023/05/13 05:37:58;;;;;;;22.23;13.37;;;10.50;99.90;;;;;;5059122;28;20469;-62
2023/05/13 05:40:23;;;;;;;17.80;12.93;;;10.40;99.90;;;;;;5056344;28;20491;-62
2023/05/13 05:42:49;;;;;;;20.13;14.43;;;10.40;99.90;;;;;;5061875;28;20229;-62
2023/05/13 05:45:15;;;;;;;17.97;12.90;;;10.40;99.90;;;;;;5067615;28;20518;-62
2023/05/13 05:47:40;;;;;;;19.43;13.83;;;10.40;99.90;;;;;;5050446;28;20257;-62
2023/05/13 05:50:06;;;;;;;19.60;14.00;;;10.40;99.90;;;;;;5059899;28;20182;-62
2023/05/13 05:52:32;;;;;;;17.93;12.80;;;10.50;99.90;;;;;;5061429;28;20195;-62
2023/05/13 05:54:57;;;;;;;19.87;12.40;;;10.50;99.90;;;;;;5062199;28;20443;-62
2023/05/13 05:57:23;;;;;;;17.97;13.07;;;10.50;99.90;;;;;;5059678;28;20195;-62
2023/05/13 05:59:50;;;;;;;19.13;13.10;;;10.60;99.90;;;;;;5063985;28;20662;-62
2023/05/13 06:02:15;;;;;;;22.63;14.00;;;10.70;99.90;;;;;;5053340;28;20206;-62
2023/05/13 06:04:41;;;;;;;16.93;11.77;;;10.70;99.90;;;;;;5061199;28;20433;-62
2023/05/13 06:07:07;;;;;;;17.47;13.50;;;10.80;99.90;;;;;;5061179;28;20182;-62
2023/05/13 06:09:33;;;;;;;16.40;11.60;;;10.80;99.90;;;;;;5055303;28;20186;-62
2023/05/13 06:11:58;;;;;;;15.23;10.63;;;10.80;99.90;;;;;;5050819;28;20478;-62
2023/05/13 06:14:24;;;;;;;13.60;10.43;;;10.90;99.90;;;;;;5059888;28;20191;-62
2023/05/13 06:16:50;;;;;;;13.63;10.70;;;10.90;99.90;;;;;;5064051;28;20201;-62
2023/05/13 06:19:15;;;;;;;13.60;9.93;;;10.90;99.90;;;;;;5068501;28;20664;-62
2023/05/13 06:21:42;;;;;;;13.57;10.10;;;10.90;99.90;;;;;;5068461;28;20198;-62
2023/05/13 06:24:08;;;;;;;12.53;10.07;;;10.90;99.90;;;;;;5060549;28;20183;-62
2023/05/13 06:26:33;;;;;;;13.90;9.20;;;11.00;99.90;;;;;;5070010;28;20480;-62
2023/05/13 06:28:59;;;;;;;14.33;10.70;;;10.90;99.90;;;;;;5061418;28;20468;-61
2023/05/13 06:31:25;;;;;;;13.87;9.73;;;10.90;99.90;;;;;;5054605;28;20183;-61
2023/05/13 06:33:51;;;;;;;14.47;9.70;;;10.90;99.90;;;;;;5070659;28;20254;-61
2023/05/13 06:36:16;;;;;;;11.90;9.77;;;10.90;99.90;;;;;;5071149;28;21063;-61
2023/05/13 06:38:42;;;;;;;16.93;10.70;;;10.90;99.90;;;;;;5063339;28;20257;-61
2023/05/13 06:41:07;;;;;;;14.23;10.37;;;11.00;99.90;;;;;;5062450;28;20267;-61
2023/05/13 06:43:33;;;;;;;15.37;11.30;;;10.90;99.90;;;;;;5070455;28;20660;-61
2023/05/13 06:45:59;;;;;;;17.53;11.40;;;11.00;99.90;;;;;;5059067;28;20222;-62
2023/05/13 06:48:25;;;;;;;17.87;11.40;;;10.90;99.90;;;;;;5053480;28;20239;-61
2023/05/13 06:50:51;;;;;;;21.73;11.53;;;10.90;99.90;;;;;;5053518;28;20437;-61
2023/05/13 06:53:17;;;;;;;14.13;10.47;;;10.90;99.90;;;;;;5061944;28;20960;-62
2023/05/13 06:55:42;;;;;;;15.53;10.83;;;10.90;99.90;;;;;;5061620;28;20174;-61
2023/05/13 06:58:09;;;;;;;16.77;10.20;;;10.90;99.90;;;;;;5054913;28;20289;-62
2023/05/13 07:00:39;;;;;;;11.90;9.53;;;10.90;99.90;;;;;;5059219;28;20178;-61
2023/05/13 07:03:05;;;;;;;15.57;10.60;;;10.90;99.90;;;;;;5054762;28;20444;-62
2023/05/13 07:05:32;;;;;;;11.70;8.87;;;10.90;99.90;;;;;;5059539;28;20986;-62
2023/05/13 07:07:58;;;;;;;16.33;9.70;;;10.90;99.90;;;;;;5063026;28;20429;-61
2023/05/13 07:10:23;;;;;;;12.77;9.53;;;10.90;99.90;;;;;;5068228;28;20432;-61
2023/05/13 07:12:49;;;;;;;13.63;9.13;;;10.90;99.90;;;;;;5065627;28;20214;-62
2023/05/13 07:15:15;;;;;;;11.77;7.97;;;10.90;99.90;;;;;;5069887;28;20170;-62
2023/05/13 07:17:41;;;;;;;10.27;8.03;;;10.90;99.90;;;;;;5054646;28;20672;-61
2023/05/13 07:20:07;;;;;;;10.50;8.33;;;10.90;99.90;;;;;;5063611;28;20979;-61
2023/05/13 07:22:34;;;;;;;10.43;7.67;;;10.90;99.90;;;;;;5063414;28;20251;-61
2023/05/13 07:25:00;;;;;;;11.13;7.80;;;10.90;99.90;;;;;;5066970;28;20433;-62
2023/05/13 07:27:25;;;;;;;9.60;7.40;;;10.90;99.90;;;;;;5060415;28;20463;-62
2023/05/13 07:29:51;;;;;;;7.80;6.47;;;11.00;99.90;;;;;;5058239;28;20202;-61
2023/05/13 07:32:16;;;;;;;9.20;7.40;;;11.00;99.90;;;;;;5057989;28;20676;-62
2023/05/13 07:34:42;;;;;;;9.20;7.10;;;11.00;99.90;;;;;;5060549;28;20189;-61
2023/05/13 07:37:08;;;;;;;8.97;7.93;;;11.10;99.90;;;;;;5064623;28;20194;-61
2023/05/13 07:39:34;;;;;;;10.73;5.77;;;11.10;99.90;;;;;;5062917;28;20179;-62
2023/05/13 07:42:00;;;;;;;7.03;6.00;;;11.20;99.90;;;;;;5057697;28;20206;-62
2023/05/13 07:44:25;;;;;;;13.50;6.70;;;11.20;99.90;;;;;;5065495;28;20197;-61
2023/05/13 07:46:52;;;;;;;6.77;5.80;;;11.20;99.90;;;;;;5065605;28;20175;-62
2023/05/13 07:49:19;;;;;;;6.80;6.10;;;11.30;99.90;;;;;;5066588;28;20192;-62
2023/05/13 07:51:44;;;;;;;6.37;5.47;;;11.30;99.90;;;;;;5061058;28;21032;-62
2023/05/13 07:54:10;;;;;;;6.40;5.70;;;11.30;99.90;;;;;;5068437;28;20505;-62
2023/05/13 07:56:37;;;;;;;6.93;5.77;;;11.30;99.90;;;;;;5063428;28;20182;-62
2023/05/13 07:59:02;;;;;;;7.00;5.23;;;11.30;99.90;;;;;;5065087;28;20185;-61
2023/05/13 08:01:28;;;;;;;6.70;5.10;;;11.30;99.90;;;;;;5049831;28;20421;-62
2023/05/13 08:03:54;;;;;;;6.40;4.93;;;11.30;99.90;;;;;;5065312;28;20177;-61
2023/05/13 08:06:19;;;;;;;5.87;5.27;;;11.40;99.90;;;;;;5065465;28;20261;-61
2023/05/13 08:08:45;;;;;;;5.40;4.90;;;11.50;99.90;;;;;;5057250;28;20593;-61
2023/05/13 08:11:12;;;;;;;6.20;5.47;;;11.50;99.90;;;;;;5094227;28;20668;-62
2023/05/13 08:13:38;;;;;;;6.60;5.20;;;11.50;99.90;;;;;;5061698;28;20218;-61
2023/05/13 08:16:05;;;;;;;9.33;4.97;;;11.60;99.90;;;;;;5067261;28;20538;-62
2023/05/13 08:18:31;;;;;;;5.37;4.87;;;11.60;99.90;;;;;;5056587;28;20230;-62
2023/05/13 08:20:57;;;;;;;6.70;5.40;;;11.60;99.90;;;;;;5062616;28;20449;-62
2023/05/13 08:23:24;;;;;;;6.37;5.63;;;11.60;99.90;;;;;;5061438;28;20194;-61
2023/05/13 08:25:50;;;;;;;6.03;5.40;;;11.70;99.90;;;;;;5062796;28;20429;-62
2023/05/13 08:28:16;;;;;;;7.57;5.77;;;11.70;99.90;;;;;;5063218;28;20535;-62
2023/05/13 08:30:43;;;;;;;9.93;6.10;;;11.70;99.90;;;;;;5063134;28;20511;-62
2023/05/13 08:33:10;;;;;;;6.20;5.60;;;11.70;99.90;;;;;;5067542;28;20844;-62
2023/05/13 08:35:35;;;;;;;8.37;6.17;;;11.70;99.90;;;;;;5065316;28;20425;-62
2023/05/13 08:38:04;;;;;;;6.13;5.53;;;11.70;99.90;;;;;;5059061;28;21143;-61
2023/05/13 08:40:30;;;;;;;6.13;5.53;;;11.70;99.90;;;;;;5058905;28;20211;-61
2023/05/13 08:42:59;;;;;;;9.70;6.10;;;11.70;99.90;;;;;;5061753;28;20999;-61
2023/05/13 08:45:28;;;;;;;6.60;5.93;;;11.80;99.90;;;;;;5058343;28;20420;-62
2023/05/13 08:48:01;;;;;;;7.17;5.83;;;11.80;99.90;;;;;;5057631;28;20455;-61
2023/05/13 08:50:28;;;;;;;6.80;6.10;;;11.80;99.90;;;;;;5058185;28;20425;-61
2023/05/13 08:52:56;;;;;;;10.50;5.77;;;11.80;99.90;;;;;;5048617;28;20448;-56
2023/05/13 08:55:22;;;;;;;11.17;6.60;;;11.90;99.90;;;;;;5053042;28;20484;-56
2023/05/13 08:57:49;;;;;;;9.43;6.80;;;11.90;99.90;;;;;;5055588;28;20461;-56
2023/05/13 09:00:15;;;;;;;9.17;7.00;;;11.90;99.90;;;;;;5060065;28;20425;-58
2023/05/13 09:02:41;;;;;;;7.27;6.03;;;11.90;99.90;;;;;;5058054;28;20961;-61
2023/05/13 09:05:08;;;;;;;7.07;6.37;;;11.90;99.90;;;;;;5056918;28;20433;-61
2023/05/13 09:07:35;;;;;;;6.87;5.77;;;11.90;99.90;;;;;;5061109;28;20554;-61
2023/05/13 09:10:02;;;;;;;8.23;6.70;;;11.90;99.90;;;;;;5065190;28;20552;-62
2023/05/13 09:12:51;;;;;;;6.17;5.57;;;11.90;99.90;;;;;;5060179;28;21888;-61
2023/05/13 09:15:18;;;;;;;8.67;6.30;;;11.90;99.90;;;;;;5065355;28;20424;-63
2023/05/13 09:17:47;;;;;;;7.43;5.90;;;12.00;99.90;;;;;;5068355;28;20561;-61
2023/05/13 09:20:15;;;;;;;8.00;6.20;;;12.00;99.90;;;;;;5064138;28;20986;-61
2023/05/13 09:22:51;;;;;;;7.43;6.40;;;12.10;99.90;;;;;;5061456;28;20488;-61
2023/05/13 09:25:19;;;;;;;8.80;7.20;;;12.20;99.90;;;;;;5065639;28;20528;-61
2023/05/13 09:27:47;;;;;;;10.33;5.90;;;12.30;99.90;;;;;;5064902;28;20437;-61
2023/05/13 09:30:13;;;;;;;7.00;6.03;;;12.40;99.90;;;;;;5060862;28;20632;-61
2023/05/13 09:32:41;;;;;;;7.57;5.70;;;12.40;99.90;;;;;;5068018;28;20479;-61
2023/05/13 09:35:12;;;;;;;9.47;6.03;;;12.40;99.90;;;;;;5063715;28;20947;-62
2023/05/13 09:37:38;;;;;;;9.20;6.47;;;12.50;99.90;;;;;;5056476;28;20454;-61
2023/05/13 09:40:04;;;;;;;7.23;6.50;;;12.60;99.90;;;;;;5051395;28;20432;-62
2023/05/13 09:42:31;;;;;;;10.47;6.80;;;12.70;99.90;;;;;;5071147;28;20193;-62
2023/05/13 09:45:05;;;;;;;6.60;5.90;;;12.80;99.90;;;;;;5071665;28;20408;-62
2023/05/13 09:47:30;;;;;;;7.67;6.20;;;12.90;99.90;;;;;;5066677;28;20824;-62
2023/05/13 09:49:56;;;;;;;9.00;6.87;;;13.00;99.90;;;;;;5065313;28;20429;-62
2023/05/13 09:52:22;;;;;;;8.77;5.73;;;13.00;99.90;;;;;;5058002;28;20256;-61
2023/05/13 09:54:47;;;;;;;8.60;6.23;;;13.10;99.90;;;;;;5068583;28;20184;-61
2023/05/13 09:57:14;;;;;;;7.40;6.33;;;13.10;99.90;;;;;;5070151;28;20201;-60
2023/05/13 09:59:40;;;;;;;10.70;6.60;;;13.20;99.90;;;;;;5071144;28;20175;-61
2023/05/13 10:02:07;;;;;;;8.20;6.63;;;13.20;99.90;;;;;;5068498;28;20473;-61
2023/05/13 10:04:33;;;;;;;8.63;6.93;;;13.30;99.90;;;;;;5070038;28;20408;-61
2023/05/13 10:07:02;;;;;;;7.83;6.90;;;13.30;99.90;;;;;;5061680;28;20550;-60
2023/05/13 10:09:33;;;;;;;7.37;5.20;;;13.40;99.90;;;;;;5068103;28;20924;-61
2023/05/13 10:12:00;;;;;;;7.83;5.63;;;13.40;99.90;;;;;;5061705;28;20436;-60
2023/05/13 10:14:26;;;;;;;9.63;6.77;;;13.40;99.90;;;;;;5069453;28;20428;-62
2023/05/13 10:16:53;;;;;;;6.30;5.70;;;13.40;99.90;;;;;;5064950;28;20590;-62
2023/05/13 10:19:19;;;;;;;7.50;5.10;;;13.40;99.90;;;;;;5064552;28;20433;-62
2023/05/13 10:21:46;;;;;;;7.13;5.40;;;13.40;99.90;;;;;;5071173;28;20783;-62
2023/05/13 10:24:12;;;;;;;7.03;5.60;;;13.40;99.90;;;;;;5066419;28;20432;-63
2023/05/13 10:26:40;;;;;;;6.20;5.40;;;13.30;99.90;;;;;;5064194;28;20466;-62
2023/05/13 10:29:07;;;;;;;9.30;6.60;;;13.30;99.90;;;;;;5066859;28;20420;-62
2023/05/13 10:31:33;;;;;;;8.83;6.10;;;13.30;99.90;;;;;;5064954;28;20785;-62
2023/05/13 10:33:59;;;;;;;7.30;6.30;;;13.20;99.90;;;;;;5059257;28;20464;-63
2023/05/13 10:36:58;;;;;;;6.50;5.80;;;13.20;99.90;;;;;;5074957;28;20476;-63
2023/05/13 10:40:01;;;;;;;11.33;6.97;;;13.20;99.90;;;;;;5043362;28;20798;-63
2023/05/13 10:42:38;;;;;;;10.40;7.40;;;13.10;99.90;;;;;;5062273;28;20869;-62
2023/05/13 10:45:04;;;;;;;8.30;6.60;;;13.10;99.90;;;;;;5071110;28;20498;-62
2023/05/13 10:47:32;;;;;;;8.43;6.70;;;13.10;99.90;;;;;;5075244;28;20948;-60
2023/05/13 10:50:03;;;;;;;10.30;7.40;;;13.10;99.90;;;;;;5071882;28;20424;-62
2023/05/13 10:52:50;;;;;;;10.00;7.33;;;13.20;99.90;;;;;;5061384;28;20460;-61
2023/05/13 10:55:18;;;;;;;8.57;7.20;;;13.20;99.90;;;;;;5063726;28;20434;-63
2023/05/13 10:58:09;;;;;;;9.33;7.67;;;13.30;99.90;;;;;;5063235;28;20461;-61
2023/05/13 11:00:37;;;;;;;9.80;7.43;;;13.40;99.90;;;;;;5068364;28;20428;-62
2023/05/13 11:03:18;;;;;;;11.13;8.67;;;13.40;99.90;;;;;;5053676;28;20511;-61
2023/05/13 11:05:46;;;;;;;9.80;7.23;;;13.40;99.90;;;;;;5058412;28;20429;-62
2023/05/13 11:08:35;;;;;;;10.63;7.90;;;13.30;99.90;;;;;;5065350;28;20455;-62
2023/05/13 11:11:01;;;;;;;10.10;7.87;;;13.30;99.90;;;;;;5065515;28;20427;-62
2023/05/13 11:13:36;;;;;;;9.73;7.33;;;13.20;99.90;;;;;;5070504;28;20531;-62
2023/05/13 11:16:05;;;;;;;8.23;6.43;;;13.30;99.90;;;;;;5071005;28;20416;-62
2023/05/13 11:18:33;;;;;;;11.23;7.93;;;13.40;99.90;;;;;;5054428;28;20441;-62
2023/05/13 11:21:06;;;;;;;12.17;7.23;;;13.40;99.90;;;;;;5065993;28;20531;-62
2023/05/13 11:23:48;;;;;;;10.57;7.43;;;13.60;99.90;;;;;;5067884;28;20535;-62
2023/05/13 11:26:15;;;;;;;8.70;6.70;;;13.70;99.90;;;;;;5067396;28;20425;-62
2023/05/13 11:28:59;;;;;;;9.20;6.60;;;13.90;99.90;;;;;;5060692;28;21101;-61
2023/05/13 11:31:51;;;;;;;9.77;6.77;;;14.00;99.90;;;;;;5058373;28;20436;-59
2023/05/13 11:34:21;;;;;;;9.93;7.30;;;14.00;99.90;;;;;;5063555;28;20446;-61
2023/05/13 11:37:03;;;;;;;10.77;7.60;;;14.00;99.90;;;;;;5062057;28;20413;-62
2023/05/13 11:39:30;;;;;;;9.10;7.23;;;13.90;99.90;;;;;;5053248;28;20420;-61
2023/05/13 11:41:56;;;;;;;8.37;6.87;;;13.80;99.90;;;;;;5053737;28;20436;-61
2023/05/13 11:44:23;;;;;;;9.23;7.07;;;13.70;99.90;;;;;;5061360;28;20471;-62
2023/05/13 11:46:54;;;;;;;10.20;8.40;;;13.60;99.90;;;;;;5051976;28;20429;-61
2023/05/13 11:49:37;;;;;;;10.27;7.90;;;13.60;99.90;;;;;;5052389;28;20432;-62
2023/05/13 11:52:11;;;;;;;9.23;6.83;;;13.50;99.90;;;;;;5054275;28;20711;-62
2023/05/13 11:54:54;;;;;;;12.67;6.77;;;13.40;99.90;;;;;;5059956;28;20504;-64
2023/05/13 11:57:20;;;;;;;10.30;6.53;;;13.40;99.90;;;;;;5056016;28;20803;-64
2023/05/13 12:00:05;;;;;;;10.70;7.30;;;13.40;99.90;;;;;;5057590;28;20451;-61
2023/05/13 12:02:36;;;;;;;12.27;6.40;;;13.40;99.90;;;;;;5055063;28;20205;-62
2023/05/13 12:05:10;;;;;;;8.57;5.90;;;13.40;99.90;;;;;;5056321;28;20420;-63
2023/05/13 12:07:36;;;;;;;10.07;6.17;;;13.40;99.90;;;;;;5065348;28;20558;-62
2023/05/13 12:10:04;;;;;;;9.90;6.83;;;13.40;99.90;;;;;;5057298;28;20431;-61
2023/05/13 12:12:32;;;;;;;12.50;5.97;;;13.30;99.90;;;;;;5060898;28;20542;-62
2023/05/13 12:15:06;;;;;;;9.43;6.33;;;13.20;99.90;;;;;;5057705;28;20433;-62
2023/05/13 12:17:32;;;;;;;14.30;5.97;;;13.10;99.90;;;;;;5055353;28;20510;-61
2023/05/13 12:20:10;;;;;;;10.03;5.97;;;13.10;99.90;;;;;;5086415;28;20503;-62
2023/05/13 12:22:57;;;;;;;9.50;5.60;;;13.10;99.90;;;;;;5052519;28;20456;-63
2023/05/13 12:25:38;;;;;;;11.20;6.40;;;13.10;99.90;;;;;;5050733;28;20447;-62
2023/05/13 12:28:16;;;;;;;8.57;6.00;;;13.10;99.90;;;;;;5048792;28;20444;-63
2023/05/13 12:30:43;;;;;;;7.30;5.93;;;13.30;99.90;;;;;;5070640;28;20980;-62
2023/05/13 12:33:17;;;;;;;8.40;5.97;;;13.70;99.90;;;;;;5060161;28;20539;-61
2023/05/13 12:35:43;;;;;;;8.00;6.83;;;14.00;99.90;;;;;;5056650;28;20980;-61
2023/05/13 12:38:16;;;;;;;12.73;8.13;;;14.30;99.90;;;;;;5065117;28;20544;-62
2023/05/13 12:40:41;;;;;;;8.63;6.40;;;14.40;99.90;;;;;;5049353;28;20433;-62